sensor_id;sensor_type;location;lat;lon;timestamp;P1;durP1;ratioP1;P2;durP2;ratioP2
69910;SDS011;63555;49.920;17.868;2022-10-16T00:01:15;13.27;;;7.45;;
69910;SDS011;63555;49.920;17.868;2022-10-16T00:03:43;14.90;;;7.93;;
69910;SDS011;63555;49.920;17.868;2022-10-16T00:06:09;13.75;;;7.05;;
69910;SDS011;63555;49.920;17.868;2022-10-16T00:08:35;15.18;;;7.78;;
69910;SDS011;63555;49.920;17.868;2022-10-16T00:11:02;16.98;;;7.55;;
69910;SDS011;63555;49.920;17.868;2022-10-16T00:13:30;14.32;;;7.25;;
69910;SDS011;63555;49.920;17.868;2022-10-16T00:15:56;12.63;;;6.70;;
69910;SDS011;63555;49.920;17.868;2022-10-16T00:18:23;11.73;;;6.68;;
69910;SDS011;63555;49.920;17.868;2022-10-16T00:20:49;14.68;;;7.35;;
69910;SDS011;63555;49.920;17.868;2022-10-16T00:23:15;19.05;;;7.50;;
69910;SDS011;63555;49.920;17.868;2022-10-16T00:25:41;24.50;;;8.40;;
69910;SDS011;63555;49.920;17.868;2022-10-16T00:28:06;16.07;;;8.77;;
69910;SDS011;63555;49.920;17.868;2022-10-16T00:30:31;14.18;;;7.88;;
69910;SDS011;63555;49.920;17.868;2022-10-16T00:32:57;13.63;;;7.50;;
69910;SDS011;63555;49.920;17.868;2022-10-16T00:35:22;17.53;;;7.70;;
69910;SDS011;63555;49.920;17.868;2022-10-16T00:37:48;15.10;;;7.50;;
69910;SDS011;63555;49.920;17.868;2022-10-16T00:40:13;19.58;;;8.25;;
69910;SDS011;63555;49.920;17.868;2022-10-16T00:42:39;14.30;;;7.83;;
69910;SDS011;63555;49.920;17.868;2022-10-16T00:45:05;14.95;;;8.15;;
69910;SDS011;63555;49.920;17.868;2022-10-16T00:47:32;15.95;;;8.88;;
69910;SDS011;63555;49.920;17.868;2022-10-16T00:50:11;16.10;;;8.68;;
69910;SDS011;63555;49.920;17.868;2022-10-16T00:52:42;16.23;;;8.02;;
69910;SDS011;63555;49.920;17.868;2022-10-16T00:55:11;14.35;;;8.30;;
69910;SDS011;63555;49.920;17.868;2022-10-16T00:57:37;14.40;;;7.67;;
69910;SDS011;63555;49.920;17.868;2022-10-16T01:00:03;21.05;;;9.73;;
69910;SDS011;63555;49.920;17.868;2022-10-16T01:02:30;15.85;;;8.00;;
69910;SDS011;63555;49.920;17.868;2022-10-16T01:04:56;15.67;;;7.97;;
69910;SDS011;63555;49.920;17.868;2022-10-16T01:08:08;15.57;;;8.40;;
69910;SDS011;63555;49.920;17.868;2022-10-16T01:15:34;16.80;;;7.85;;
69910;SDS011;63555;49.920;17.868;2022-10-16T01:18:08;15.45;;;8.20;;
69910;SDS011;63555;49.920;17.868;2022-10-16T01:20:39;14.95;;;7.95;;
69910;SDS011;63555;49.920;17.868;2022-10-16T01:23:15;15.83;;;7.73;;
69910;SDS011;63555;49.920;17.868;2022-10-16T01:28:52;14.68;;;7.47;;
69910;SDS011;63555;49.920;17.868;2022-10-16T01:31:22;15.02;;;7.30;;
69910;SDS011;63555;49.920;17.868;2022-10-16T01:33:55;14.13;;;7.63;;
69910;SDS011;63555;49.920;17.868;2022-10-16T01:36:28;15.90;;;6.97;;
69910;SDS011;63555;49.920;17.868;2022-10-16T01:39:00;16.17;;;7.47;;
69910;SDS011;63555;49.920;17.868;2022-10-16T01:41:32;16.27;;;7.45;;
69910;SDS011;63555;49.920;17.868;2022-10-16T01:46:37;14.07;;;7.55;;
69910;SDS011;63555;49.920;17.868;2022-10-16T01:49:06;17.47;;;7.17;;
69910;SDS011;63555;49.920;17.868;2022-10-16T01:51:34;15.73;;;7.18;;
69910;SDS011;63555;49.920;17.868;2022-10-16T01:54:02;16.33;;;7.60;;
69910;SDS011;63555;49.920;17.868;2022-10-16T01:56:32;13.45;;;7.28;;
69910;SDS011;63555;49.920;17.868;2022-10-16T01:59:05;16.95;;;7.55;;
69910;SDS011;63555;49.920;17.868;2022-10-16T02:01:35;12.77;;;7.07;;
69910;SDS011;63555;49.920;17.868;2022-10-16T02:04:04;13.35;;;7.00;;
69910;SDS011;63555;49.920;17.868;2022-10-16T02:06:52;20.02;;;7.60;;
69910;SDS011;63555;49.920;17.868;2022-10-16T02:09:18;13.43;;;7.30;;
69910;SDS011;63555;49.920;17.868;2022-10-16T02:11:44;14.87;;;7.60;;
69910;SDS011;63555;49.920;17.868;2022-10-16T02:14:10;18.48;;;7.68;;
69910;SDS011;63555;49.920;17.868;2022-10-16T02:16:39;13.20;;;7.50;;
69910;SDS011;63555;49.920;17.868;2022-10-16T02:19:09;13.65;;;7.22;;
69910;SDS011;63555;49.920;17.868;2022-10-16T02:22:10;19.40;;;7.78;;
69910;SDS011;63555;49.920;17.868;2022-10-16T02:27:03;16.83;;;7.78;;
69910;SDS011;63555;49.920;17.868;2022-10-16T02:29:35;13.87;;;7.83;;
69910;SDS011;63555;49.920;17.868;2022-10-16T02:32:10;12.35;;;7.18;;
69910;SDS011;63555;49.920;17.868;2022-10-16T02:34:38;16.75;;;8.07;;
69910;SDS011;63555;49.920;17.868;2022-10-16T02:37:04;14.07;;;7.38;;
69910;SDS011;63555;49.920;17.868;2022-10-16T02:39:31;17.60;;;8.23;;
69910;SDS011;63555;49.920;17.868;2022-10-16T02:41:58;14.60;;;7.37;;
69910;SDS011;63555;49.920;17.868;2022-10-16T02:44:23;19.00;;;7.68;;
69910;SDS011;63555;49.920;17.868;2022-10-16T02:46:48;14.20;;;7.53;;
69910;SDS011;63555;49.920;17.868;2022-10-16T02:49:14;15.20;;;8.20;;
69910;SDS011;63555;49.920;17.868;2022-10-16T02:51:40;16.52;;;8.48;;
69910;SDS011;63555;49.920;17.868;2022-10-16T02:54:05;17.77;;;8.27;;
69910;SDS011;63555;49.920;17.868;2022-10-16T02:56:31;16.00;;;7.87;;
69910;SDS011;63555;49.920;17.868;2022-10-16T02:58:56;15.73;;;7.95;;
69910;SDS011;63555;49.920;17.868;2022-10-16T03:01:22;13.37;;;7.40;;
69910;SDS011;63555;49.920;17.868;2022-10-16T03:03:48;14.52;;;8.27;;
69910;SDS011;63555;49.920;17.868;2022-10-16T03:06:14;16.77;;;8.37;;
69910;SDS011;63555;49.920;17.868;2022-10-16T03:08:39;18.80;;;8.50;;
69910;SDS011;63555;49.920;17.868;2022-10-16T03:11:04;17.03;;;8.23;;
69910;SDS011;63555;49.920;17.868;2022-10-16T03:13:30;16.27;;;8.50;;
69910;SDS011;63555;49.920;17.868;2022-10-16T03:15:55;15.82;;;7.90;;
69910;SDS011;63555;49.920;17.868;2022-10-16T03:18:21;16.75;;;7.82;;
69910;SDS011;63555;49.920;17.868;2022-10-16T03:20:46;14.03;;;7.53;;
69910;SDS011;63555;49.920;17.868;2022-10-16T03:23:11;17.60;;;8.50;;
69910;SDS011;63555;49.920;17.868;2022-10-16T03:25:37;15.60;;;8.00;;
69910;SDS011;63555;49.920;17.868;2022-10-16T03:28:02;14.87;;;8.60;;
69910;SDS011;63555;49.920;17.868;2022-10-16T03:30:28;19.63;;;8.70;;
69910;SDS011;63555;49.920;17.868;2022-10-16T03:32:53;19.27;;;8.47;;
69910;SDS011;63555;49.920;17.868;2022-10-16T03:35:19;15.40;;;8.77;;
69910;SDS011;63555;49.920;17.868;2022-10-16T03:37:49;18.67;;;8.75;;
69910;SDS011;63555;49.920;17.868;2022-10-16T03:40:15;17.52;;;8.95;;
69910;SDS011;63555;49.920;17.868;2022-10-16T03:42:42;16.15;;;8.80;;
69910;SDS011;63555;49.920;17.868;2022-10-16T03:45:08;17.30;;;9.48;;
69910;SDS011;63555;49.920;17.868;2022-10-16T03:47:34;18.23;;;9.17;;
69910;SDS011;63555;49.920;17.868;2022-10-16T03:50:00;19.05;;;8.75;;
69910;SDS011;63555;49.920;17.868;2022-10-16T03:52:25;17.67;;;8.70;;
69910;SDS011;63555;49.920;17.868;2022-10-16T03:54:51;19.27;;;8.23;;
69910;SDS011;63555;49.920;17.868;2022-10-16T03:57:16;15.38;;;8.82;;
69910;SDS011;63555;49.920;17.868;2022-10-16T03:59:42;16.95;;;8.27;;
69910;SDS011;63555;49.920;17.868;2022-10-16T04:02:07;22.70;;;8.50;;
69910;SDS011;63555;49.920;17.868;2022-10-16T04:04:33;17.53;;;8.73;;
69910;SDS011;63555;49.920;17.868;2022-10-16T04:06:58;18.90;;;9.23;;
69910;SDS011;63555;49.920;17.868;2022-10-16T04:09:23;20.10;;;8.88;;
69910;SDS011;63555;49.920;17.868;2022-10-16T04:11:49;17.17;;;8.43;;
69910;SDS011;63555;49.920;17.868;2022-10-16T04:14:14;15.77;;;8.43;;
69910;SDS011;63555;49.920;17.868;2022-10-16T04:16:39;15.10;;;7.77;;
69910;SDS011;63555;49.920;17.868;2022-10-16T04:19:05;13.83;;;7.50;;
69910;SDS011;63555;49.920;17.868;2022-10-16T04:21:30;20.80;;;7.53;;
69910;SDS011;63555;49.920;17.868;2022-10-16T04:23:55;15.33;;;7.07;;
69910;SDS011;63555;49.920;17.868;2022-10-16T04:26:21;12.50;;;6.87;;
69910;SDS011;63555;49.920;17.868;2022-10-16T04:28:46;14.52;;;6.85;;
69910;SDS011;63555;49.920;17.868;2022-10-16T04:31:11;13.88;;;7.13;;
69910;SDS011;63555;49.920;17.868;2022-10-16T04:33:37;12.50;;;6.50;;
69910;SDS011;63555;49.920;17.868;2022-10-16T04:36:03;11.03;;;6.40;;
69910;SDS011;63555;49.920;17.868;2022-10-16T04:38:28;11.43;;;6.10;;
69910;SDS011;63555;49.920;17.868;2022-10-16T04:40:54;12.97;;;7.00;;
69910;SDS011;63555;49.920;17.868;2022-10-16T04:43:20;13.77;;;6.75;;
69910;SDS011;63555;49.920;17.868;2022-10-16T04:45:46;13.87;;;6.63;;
69910;SDS011;63555;49.920;17.868;2022-10-16T04:48:11;14.65;;;5.68;;
69910;SDS011;63555;49.920;17.868;2022-10-16T04:50:36;11.47;;;5.90;;
69910;SDS011;63555;49.920;17.868;2022-10-16T04:53:02;10.10;;;5.50;;
69910;SDS011;63555;49.920;17.868;2022-10-16T04:55:27;11.67;;;6.13;;
69910;SDS011;63555;49.920;17.868;2022-10-16T04:57:53;11.77;;;6.43;;
69910;SDS011;63555;49.920;17.868;2022-10-16T05:00:18;11.10;;;6.15;;
69910;SDS011;63555;49.920;17.868;2022-10-16T05:02:44;12.65;;;6.47;;
69910;SDS011;63555;49.920;17.868;2022-10-16T05:05:10;12.35;;;5.97;;
69910;SDS011;63555;49.920;17.868;2022-10-16T05:07:35;14.17;;;6.50;;
69910;SDS011;63555;49.920;17.868;2022-10-16T05:10:00;10.23;;;5.90;;
69910;SDS011;63555;49.920;17.868;2022-10-16T05:12:26;12.07;;;5.80;;
69910;SDS011;63555;49.920;17.868;2022-10-16T05:14:51;11.80;;;6.50;;
69910;SDS011;63555;49.920;17.868;2022-10-16T05:17:17;11.75;;;6.72;;
69910;SDS011;63555;49.920;17.868;2022-10-16T05:19:42;11.57;;;6.50;;
69910;SDS011;63555;49.920;17.868;2022-10-16T05:22:08;11.67;;;6.20;;
69910;SDS011;63555;49.920;17.868;2022-10-16T05:24:33;12.13;;;6.50;;
69910;SDS011;63555;49.920;17.868;2022-10-16T05:26:59;14.48;;;6.80;;
69910;SDS011;63555;49.920;17.868;2022-10-16T05:29:24;11.50;;;6.27;;
69910;SDS011;63555;49.920;17.868;2022-10-16T05:31:50;13.57;;;7.30;;
69910;SDS011;63555;49.920;17.868;2022-10-16T05:34:17;13.90;;;6.82;;
69910;SDS011;63555;49.920;17.868;2022-10-16T05:36:43;12.03;;;7.00;;
69910;SDS011;63555;49.920;17.868;2022-10-16T05:39:10;10.18;;;5.97;;
69910;SDS011;63555;49.920;17.868;2022-10-16T05:41:36;12.25;;;6.40;;
69910;SDS011;63555;49.920;17.868;2022-10-16T05:44:04;16.13;;;6.70;;
69910;SDS011;63555;49.920;17.868;2022-10-16T05:46:30;14.93;;;7.00;;
69910;SDS011;63555;49.920;17.868;2022-10-16T05:48:56;15.07;;;7.10;;
69910;SDS011;63555;49.920;17.868;2022-10-16T05:51:22;16.13;;;6.78;;
69910;SDS011;63555;49.920;17.868;2022-10-16T05:53:47;14.93;;;6.90;;
69910;SDS011;63555;49.920;17.868;2022-10-16T05:56:12;14.93;;;7.10;;
69910;SDS011;63555;49.920;17.868;2022-10-16T05:58:38;11.00;;;6.30;;
69910;SDS011;63555;49.920;17.868;2022-10-16T06:01:38;13.68;;;7.07;;
69910;SDS011;63555;49.920;17.868;2022-10-16T06:03:57;14.27;;;6.82;;
69910;SDS011;63555;49.920;17.868;2022-10-16T06:06:24;12.07;;;6.53;;
69910;SDS011;63555;49.920;17.868;2022-10-16T06:08:51;12.57;;;7.10;;
69910;SDS011;63555;49.920;17.868;2022-10-16T06:11:21;15.68;;;6.93;;
69910;SDS011;63555;49.920;17.868;2022-10-16T06:13:49;13.63;;;7.03;;
69910;SDS011;63555;49.920;17.868;2022-10-16T06:16:16;14.02;;;7.07;;
69910;SDS011;63555;49.920;17.868;2022-10-16T06:18:41;11.30;;;6.47;;
69910;SDS011;63555;49.920;17.868;2022-10-16T06:21:11;12.50;;;6.83;;
69910;SDS011;63555;49.920;17.868;2022-10-16T06:23:45;13.38;;;7.28;;
69910;SDS011;63555;49.920;17.868;2022-10-16T06:26:14;14.00;;;7.75;;
69910;SDS011;63555;49.920;17.868;2022-10-16T06:28:41;11.93;;;6.50;;
69910;SDS011;63555;49.920;17.868;2022-10-16T06:31:08;14.02;;;7.45;;
69910;SDS011;63555;49.920;17.868;2022-10-16T06:33:35;11.65;;;7.43;;
69910;SDS011;63555;49.920;17.868;2022-10-16T06:36:11;16.67;;;7.33;;
69910;SDS011;63555;49.920;17.868;2022-10-16T06:38:39;13.00;;;7.03;;
69910;SDS011;63555;49.920;17.868;2022-10-16T06:41:05;12.93;;;7.40;;
69910;SDS011;63555;49.920;17.868;2022-10-16T06:43:32;16.10;;;7.73;;
69910;SDS011;63555;49.920;17.868;2022-10-16T06:46:00;13.85;;;7.50;;
69910;SDS011;63555;49.920;17.868;2022-10-16T06:48:26;12.05;;;7.53;;
69910;SDS011;63555;49.920;17.868;2022-10-16T06:50:57;13.48;;;7.47;;
69910;SDS011;63555;49.920;17.868;2022-10-16T06:53:23;16.23;;;7.65;;
69910;SDS011;63555;49.920;17.868;2022-10-16T06:55:49;12.13;;;7.17;;
69910;SDS011;63555;49.920;17.868;2022-10-16T06:58:14;16.38;;;6.82;;
69910;SDS011;63555;49.920;17.868;2022-10-16T07:00:39;15.03;;;7.53;;
69910;SDS011;63555;49.920;17.868;2022-10-16T07:03:05;12.47;;;7.30;;
69910;SDS011;63555;49.920;17.868;2022-10-16T07:05:30;12.20;;;6.73;;
69910;SDS011;63555;49.920;17.868;2022-10-16T07:07:56;13.30;;;7.47;;
69910;SDS011;63555;49.920;17.868;2022-10-16T07:10:21;15.00;;;7.68;;
69910;SDS011;63555;49.920;17.868;2022-10-16T07:12:49;14.33;;;7.67;;
69910;SDS011;63555;49.920;17.868;2022-10-16T07:15:15;12.43;;;7.63;;
69910;SDS011;63555;49.920;17.868;2022-10-16T07:17:40;18.50;;;7.83;;
69910;SDS011;63555;49.920;17.868;2022-10-16T07:20:06;12.68;;;7.50;;
69910;SDS011;63555;49.920;17.868;2022-10-16T07:22:31;16.43;;;7.90;;
69910;SDS011;63555;49.920;17.868;2022-10-16T07:24:58;16.83;;;8.00;;
69910;SDS011;63555;49.920;17.868;2022-10-16T07:27:24;16.27;;;7.53;;
69910;SDS011;63555;49.920;17.868;2022-10-16T07:29:49;20.83;;;7.15;;
69910;SDS011;63555;49.920;17.868;2022-10-16T07:32:15;13.10;;;7.43;;
69910;SDS011;63555;49.920;17.868;2022-10-16T07:34:40;15.67;;;7.53;;
69910;SDS011;63555;49.920;17.868;2022-10-16T07:37:07;16.10;;;7.05;;
69910;SDS011;63555;49.920;17.868;2022-10-16T07:39:32;11.63;;;6.80;;
69910;SDS011;63555;49.920;17.868;2022-10-16T07:41:58;13.90;;;7.05;;
69910;SDS011;63555;49.920;17.868;2022-10-16T07:44:23;12.53;;;6.67;;
69910;SDS011;63555;49.920;17.868;2022-10-16T07:46:48;14.57;;;7.10;;
69910;SDS011;63555;49.920;17.868;2022-10-16T07:49:14;12.77;;;6.00;;
69910;SDS011;63555;49.920;17.868;2022-10-16T07:51:39;13.30;;;6.57;;
69910;SDS011;63555;49.920;17.868;2022-10-16T07:54:05;14.70;;;6.18;;
69910;SDS011;63555;49.920;17.868;2022-10-16T07:56:30;10.40;;;6.27;;
69910;SDS011;63555;49.920;17.868;2022-10-16T07:58:57;39.40;;;7.60;;
69910;SDS011;63555;49.920;17.868;2022-10-16T08:01:23;24.63;;;7.43;;
69910;SDS011;63555;49.920;17.868;2022-10-16T08:03:49;11.03;;;6.13;;
69910;SDS011;63555;49.920;17.868;2022-10-16T08:06:15;12.50;;;6.53;;
69910;SDS011;63555;49.920;17.868;2022-10-16T08:08:42;10.48;;;6.28;;
69910;SDS011;63555;49.920;17.868;2022-10-16T08:11:07;11.30;;;6.63;;
69910;SDS011;63555;49.920;17.868;2022-10-16T08:13:33;12.68;;;6.18;;
69910;SDS011;63555;49.920;17.868;2022-10-16T08:15:59;13.23;;;6.55;;
69910;SDS011;63555;49.920;17.868;2022-10-16T08:18:25;11.47;;;5.93;;
69910;SDS011;63555;49.920;17.868;2022-10-16T08:20:58;16.00;;;6.18;;
69910;SDS011;63555;49.920;17.868;2022-10-16T08:23:25;9.13;;;6.20;;
69910;SDS011;63555;49.920;17.868;2022-10-16T08:25:54;10.18;;;6.60;;
69910;SDS011;63555;49.920;17.868;2022-10-16T08:28:21;9.98;;;6.68;;
69910;SDS011;63555;49.920;17.868;2022-10-16T08:30:47;13.07;;;6.40;;
69910;SDS011;63555;49.920;17.868;2022-10-16T08:33:13;12.47;;;6.50;;
69910;SDS011;63555;49.920;17.868;2022-10-16T08:35:38;14.27;;;6.30;;
69910;SDS011;63555;49.920;17.868;2022-10-16T08:38:04;10.07;;;6.22;;
69910;SDS011;63555;49.920;17.868;2022-10-16T08:40:31;10.35;;;5.70;;
69910;SDS011;63555;49.920;17.868;2022-10-16T08:48:47;22.45;;;6.30;;
69910;SDS011;63555;49.920;17.868;2022-10-16T08:51:20;17.17;;;6.25;;
69910;SDS011;63555;49.920;17.868;2022-10-16T08:56:56;11.43;;;5.90;;
69910;SDS011;63555;49.920;17.868;2022-10-16T08:59:26;10.30;;;5.93;;
69910;SDS011;63555;49.920;17.868;2022-10-16T09:01:51;10.05;;;6.35;;
69910;SDS011;63555;49.920;17.868;2022-10-16T09:04:32;8.53;;;5.83;;
69910;SDS011;63555;49.920;17.868;2022-10-16T09:12:40;9.70;;;5.70;;
69910;SDS011;63555;49.920;17.868;2022-10-16T09:25:28;11.23;;;5.97;;
69910;SDS011;63555;49.920;17.868;2022-10-16T09:27:54;9.57;;;6.40;;
69910;SDS011;63555;49.920;17.868;2022-10-16T09:30:20;9.15;;;6.00;;
69910;SDS011;63555;49.920;17.868;2022-10-16T09:32:47;10.52;;;5.93;;
69910;SDS011;63555;49.920;17.868;2022-10-16T09:35:16;10.30;;;6.22;;
69910;SDS011;63555;49.920;17.868;2022-10-16T09:37:45;10.93;;;6.10;;
69910;SDS011;63555;49.920;17.868;2022-10-16T09:40:27;14.77;;;6.77;;
69910;SDS011;63555;49.920;17.868;2022-10-16T09:43:01;13.43;;;6.20;;
69910;SDS011;63555;49.920;17.868;2022-10-16T09:45:26;9.50;;;6.32;;
69910;SDS011;63555;49.920;17.868;2022-10-16T09:47:52;9.53;;;5.93;;
69910;SDS011;63555;49.920;17.868;2022-10-16T09:50:25;8.77;;;5.65;;
69910;SDS011;63555;49.920;17.868;2022-10-16T09:55:52;10.00;;;5.93;;
69910;SDS011;63555;49.920;17.868;2022-10-16T09:58:21;9.52;;;5.93;;
69910;SDS011;63555;49.920;17.868;2022-10-16T10:00:49;12.88;;;6.90;;
69910;SDS011;63555;49.920;17.868;2022-10-16T10:03:37;11.15;;;6.10;;
69910;SDS011;63555;49.920;17.868;2022-10-16T10:06:15;16.02;;;5.97;;
69910;SDS011;63555;49.920;17.868;2022-10-16T10:08:53;12.70;;;5.93;;
69910;SDS011;63555;49.920;17.868;2022-10-16T10:11:39;11.82;;;5.85;;
69910;SDS011;63555;49.920;17.868;2022-10-16T10:14:50;9.75;;;5.78;;
69910;SDS011;63555;49.920;17.868;2022-10-16T10:19:46;9.65;;;5.68;;
69910;SDS011;63555;49.920;17.868;2022-10-16T10:39:08;15.25;;;6.03;;
69910;SDS011;63555;49.920;17.868;2022-10-16T10:41:48;13.82;;;5.90;;
69910;SDS011;63555;49.920;17.868;2022-10-16T11:00:51;10.50;;;6.43;;
69910;SDS011;63555;49.920;17.868;2022-10-16T11:08:48;10.25;;;5.90;;
69910;SDS011;63555;49.920;17.868;2022-10-16T11:14:28;14.18;;;6.22;;
69910;SDS011;63555;49.920;17.868;2022-10-16T11:24:53;10.25;;;5.93;;
69910;SDS011;63555;49.920;17.868;2022-10-16T11:27:39;11.20;;;6.32;;
69910;SDS011;63555;49.920;17.868;2022-10-16T11:30:42;11.90;;;5.93;;
69910;SDS011;63555;49.920;17.868;2022-10-16T11:36:33;11.23;;;6.03;;
69910;SDS011;63555;49.920;17.868;2022-10-16T11:44:34;9.37;;;5.73;;
69910;SDS011;63555;49.920;17.868;2022-10-16T11:47:24;13.20;;;6.53;;
69910;SDS011;63555;49.920;17.868;2022-10-16T11:50:06;12.48;;;6.47;;
69910;SDS011;63555;49.920;17.868;2022-10-16T11:52:48;12.55;;;6.22;;
69910;SDS011;63555;49.920;17.868;2022-10-16T11:55:38;9.25;;;6.00;;
69910;SDS011;63555;49.920;17.868;2022-10-16T12:03:27;9.80;;;5.55;;
69910;SDS011;63555;49.920;17.868;2022-10-16T12:08:44;13.23;;;6.95;;
69910;SDS011;63555;49.920;17.868;2022-10-16T12:17:24;11.13;;;6.03;;
69910;SDS011;63555;49.920;17.868;2022-10-16T12:19:30;15.43;;;7.85;;
69910;SDS011;63555;49.920;17.868;2022-10-16T12:22:00;12.32;;;7.25;;
69910;SDS011;63555;49.920;17.868;2022-10-16T12:24:38;12.03;;;6.30;;
69910;SDS011;63555;49.920;17.868;2022-10-16T12:27:30;9.98;;;6.13;;
69910;SDS011;63555;49.920;17.868;2022-10-16T12:30:01;11.15;;;6.35;;
69910;SDS011;63555;49.920;17.868;2022-10-16T12:32:35;12.75;;;6.75;;
69910;SDS011;63555;49.920;17.868;2022-10-16T12:35:04;13.02;;;6.80;;
69910;SDS011;63555;49.920;17.868;2022-10-16T12:37:33;13.90;;;7.13;;
69910;SDS011;63555;49.920;17.868;2022-10-16T12:40:11;13.48;;;6.80;;
69910;SDS011;63555;49.920;17.868;2022-10-16T12:42:39;13.27;;;6.38;;
69910;SDS011;63555;49.920;17.868;2022-10-16T12:47:51;13.10;;;5.60;;
69910;SDS011;63555;49.920;17.868;2022-10-16T12:50:26;11.32;;;6.47;;
69910;SDS011;63555;49.920;17.868;2022-10-16T12:52:57;11.82;;;6.50;;
69910;SDS011;63555;49.920;17.868;2022-10-16T12:55:24;12.68;;;6.10;;
69910;SDS011;63555;49.920;17.868;2022-10-16T13:00:56;15.33;;;6.83;;
69910;SDS011;63555;49.920;17.868;2022-10-16T13:03:26;14.55;;;6.22;;
69910;SDS011;63555;49.920;17.868;2022-10-16T13:14:51;10.47;;;6.63;;
69910;SDS011;63555;49.920;17.868;2022-10-16T13:17:31;16.88;;;7.90;;
69910;SDS011;63555;49.920;17.868;2022-10-16T13:22:44;12.18;;;6.82;;
69910;SDS011;63555;49.920;17.868;2022-10-16T13:30:20;12.40;;;6.90;;
69910;SDS011;63555;49.920;17.868;2022-10-16T13:32:49;13.68;;;7.43;;
69910;SDS011;63555;49.920;17.868;2022-10-16T13:35:25;17.55;;;7.57;;
69910;SDS011;63555;49.920;17.868;2022-10-16T13:38:03;12.02;;;6.97;;
69910;SDS011;63555;49.920;17.868;2022-10-16T13:43:44;12.18;;;6.93;;
69910;SDS011;63555;49.920;17.868;2022-10-16T13:48:40;11.95;;;7.22;;
69910;SDS011;63555;49.920;17.868;2022-10-16T13:51:06;12.57;;;6.77;;
69910;SDS011;63555;49.920;17.868;2022-10-16T13:53:38;13.13;;;6.75;;
69910;SDS011;63555;49.920;17.868;2022-10-16T13:56:05;12.95;;;7.38;;
69910;SDS011;63555;49.920;17.868;2022-10-16T13:58:32;12.38;;;6.82;;
69910;SDS011;63555;49.920;17.868;2022-10-16T14:01:02;14.63;;;6.87;;
69910;SDS011;63555;49.920;17.868;2022-10-16T14:03:30;13.55;;;7.25;;
69910;SDS011;63555;49.920;17.868;2022-10-16T14:06:00;12.63;;;7.38;;
69910;SDS011;63555;49.920;17.868;2022-10-16T14:08:28;11.25;;;7.20;;
69910;SDS011;63555;49.920;17.868;2022-10-16T14:10:59;12.68;;;7.43;;
69910;SDS011;63555;49.920;17.868;2022-10-16T14:13:30;13.27;;;6.90;;
69910;SDS011;63555;49.920;17.868;2022-10-16T14:15:59;11.15;;;6.72;;
69910;SDS011;63555;49.920;17.868;2022-10-16T14:18:30;12.00;;;6.85;;
69910;SDS011;63555;49.920;17.868;2022-10-16T14:21:01;14.10;;;7.07;;
69910;SDS011;63555;49.920;17.868;2022-10-16T14:23:30;10.85;;;6.63;;
69910;SDS011;63555;49.920;17.868;2022-10-16T14:26:06;14.00;;;7.38;;
69910;SDS011;63555;49.920;17.868;2022-10-16T14:28:35;13.75;;;7.95;;
69910;SDS011;63555;49.920;17.868;2022-10-16T14:33:49;12.75;;;7.07;;
69910;SDS011;63555;49.920;17.868;2022-10-16T14:36:15;12.57;;;7.30;;
69910;SDS011;63555;49.920;17.868;2022-10-16T14:41:24;15.02;;;7.55;;
69910;SDS011;63555;49.920;17.868;2022-10-16T14:43:51;13.07;;;7.38;;
69910;SDS011;63555;49.920;17.868;2022-10-16T14:46:20;15.88;;;7.85;;
69910;SDS011;63555;49.920;17.868;2022-10-16T14:48:51;15.43;;;8.00;;
69910;SDS011;63555;49.920;17.868;2022-10-16T14:51:22;13.27;;;7.60;;
69910;SDS011;63555;49.920;17.868;2022-10-16T14:53:48;15.30;;;7.90;;
69910;SDS011;63555;49.920;17.868;2022-10-16T14:56:15;13.57;;;7.88;;
69910;SDS011;63555;49.920;17.868;2022-10-16T14:58:43;13.98;;;8.15;;
69910;SDS011;63555;49.920;17.868;2022-10-16T15:01:09;13.50;;;8.50;;
69910;SDS011;63555;49.920;17.868;2022-10-16T15:03:36;17.70;;;8.00;;
69910;SDS011;63555;49.920;17.868;2022-10-16T15:06:02;15.53;;;8.20;;
69910;SDS011;63555;49.920;17.868;2022-10-16T15:08:28;13.30;;;7.57;;
69910;SDS011;63555;49.920;17.868;2022-10-16T15:10:53;13.67;;;8.70;;
69910;SDS011;63555;49.920;17.868;2022-10-16T15:13:19;18.50;;;9.17;;
69910;SDS011;63555;49.920;17.868;2022-10-16T15:15:45;15.83;;;8.60;;
69910;SDS011;63555;49.920;17.868;2022-10-16T15:18:11;14.90;;;8.07;;
69910;SDS011;63555;49.920;17.868;2022-10-16T15:20:39;18.58;;;8.18;;
69910;SDS011;63555;49.920;17.868;2022-10-16T15:23:18;15.13;;;8.10;;
69910;SDS011;63555;49.920;17.868;2022-10-16T15:25:46;16.55;;;8.50;;
69910;SDS011;63555;49.920;17.868;2022-10-16T15:28:14;19.80;;;7.97;;
69910;SDS011;63555;49.920;17.868;2022-10-16T15:30:40;16.48;;;8.93;;
69910;SDS011;63555;49.920;17.868;2022-10-16T15:33:10;15.45;;;8.75;;
69910;SDS011;63555;49.920;17.868;2022-10-16T15:35:40;17.17;;;8.85;;
69910;SDS011;63555;49.920;17.868;2022-10-16T15:38:05;14.53;;;8.73;;
69910;SDS011;63555;49.920;17.868;2022-10-16T15:40:31;15.70;;;9.07;;
69910;SDS011;63555;49.920;17.868;2022-10-16T15:42:56;18.98;;;9.07;;
69910;SDS011;63555;49.920;17.868;2022-10-16T15:45:22;15.87;;;8.40;;
69910;SDS011;63555;49.920;17.868;2022-10-16T15:47:47;22.33;;;9.93;;
69910;SDS011;63555;49.920;17.868;2022-10-16T15:50:13;20.27;;;9.68;;
69910;SDS011;63555;49.920;17.868;2022-10-16T15:52:40;16.58;;;10.65;;
69910;SDS011;63555;49.920;17.868;2022-10-16T15:55:06;24.48;;;11.18;;
69910;SDS011;63555;49.920;17.868;2022-10-16T15:57:34;29.30;;;14.00;;
69910;SDS011;63555;49.920;17.868;2022-10-16T16:00:00;24.90;;;12.43;;
69910;SDS011;63555;49.920;17.868;2022-10-16T16:02:25;23.97;;;10.60;;
69910;SDS011;63555;49.920;17.868;2022-10-16T16:04:51;22.27;;;12.40;;
69910;SDS011;63555;49.920;17.868;2022-10-16T16:07:17;25.13;;;13.02;;
69910;SDS011;63555;49.920;17.868;2022-10-16T16:09:42;23.90;;;13.50;;
69910;SDS011;63555;49.920;17.868;2022-10-16T16:12:09;20.20;;;11.07;;
69910;SDS011;63555;49.920;17.868;2022-10-16T16:14:35;24.70;;;13.10;;
69910;SDS011;63555;49.920;17.868;2022-10-16T16:17:00;19.03;;;10.07;;
69910;SDS011;63555;49.920;17.868;2022-10-16T16:19:27;17.48;;;8.00;;
69910;SDS011;63555;49.920;17.868;2022-10-16T16:21:52;20.30;;;8.73;;
69910;SDS011;63555;49.920;17.868;2022-10-16T16:24:18;15.50;;;8.00;;
69910;SDS011;63555;49.920;17.868;2022-10-16T16:26:43;17.65;;;8.15;;
69910;SDS011;63555;49.920;17.868;2022-10-16T16:29:10;18.07;;;8.77;;
69910;SDS011;63555;49.920;17.868;2022-10-16T16:31:41;16.17;;;9.05;;
69910;SDS011;63555;49.920;17.868;2022-10-16T16:34:07;17.20;;;8.18;;
69910;SDS011;63555;49.920;17.868;2022-10-16T16:36:33;14.73;;;7.93;;
69910;SDS011;63555;49.920;17.868;2022-10-16T16:39:00;16.50;;;8.77;;
69910;SDS011;63555;49.920;17.868;2022-10-16T16:41:27;20.17;;;9.77;;
69910;SDS011;63555;49.920;17.868;2022-10-16T16:43:54;21.55;;;10.15;;
69910;SDS011;63555;49.920;17.868;2022-10-16T16:46:25;19.73;;;9.35;;
69910;SDS011;63555;49.920;17.868;2022-10-16T16:48:51;21.27;;;10.05;;
69910;SDS011;63555;49.920;17.868;2022-10-16T16:51:19;16.55;;;8.88;;
69910;SDS011;63555;49.920;17.868;2022-10-16T16:53:46;18.80;;;8.73;;
69910;SDS011;63555;49.920;17.868;2022-10-16T16:56:13;17.60;;;8.90;;
69910;SDS011;63555;49.920;17.868;2022-10-16T16:58:38;20.77;;;9.00;;